sensor_id;sensor_type;location;lat;lon;timestamp;temperature;humidity
18454;DHT22;9356;52.202;20.950;2023-03-20T00:00:17;9.90;62.00
18454;DHT22;9356;52.202;20.950;2023-03-20T00:01:24;9.80;62.00
18454;DHT22;9356;52.202;20.950;2023-03-20T00:02:29;9.80;62.20
18454;DHT22;9356;52.202;20.950;2023-03-20T00:03:33;9.80;62.10
18454;DHT22;9356;52.202;20.950;2023-03-20T00:04:37;9.80;62.80
18454;DHT22;9356;52.202;20.950;2023-03-20T00:05:40;9.80;62.20
18454;DHT22;9356;52.202;20.950;2023-03-20T00:06:44;10.90;62.80
18454;DHT22;9356;52.202;20.950;2023-03-20T00:07:48;9.80;61.90
18454;DHT22;9356;52.202;20.950;2023-03-20T00:08:53;9.80;62.10
18454;DHT22;9356;52.202;20.950;2023-03-20T00:09:58;9.80;62.10
18454;DHT22;9356;52.202;20.950;2023-03-20T00:11:02;9.80;62.60
18454;DHT22;9356;52.202;20.950;2023-03-20T00:12:05;9.80;62.20
18454;DHT22;9356;52.202;20.950;2023-03-20T00:13:14;9.80;62.30
18454;DHT22;9356;52.202;20.950;2023-03-20T00:14:22;8.60;61.50
18454;DHT22;9356;52.202;20.950;2023-03-20T00:15:29;9.70;62.30
18454;DHT22;9356;52.202;20.950;2023-03-20T00:16:34;9.80;62.40
18454;DHT22;9356;52.202;20.950;2023-03-20T00:17:39;9.80;62.60
18454;DHT22;9356;52.202;20.950;2023-03-20T00:18:42;9.80;62.50
18454;DHT22;9356;52.202;20.950;2023-03-20T00:19:46;9.70;62.50
18454;DHT22;9356;52.202;20.950;2023-03-20T00:20:50;9.70;62.80
18454;DHT22;9356;52.202;20.950;2023-03-20T00:21:55;9.70;63.10
18454;DHT22;9356;52.202;20.950;2023-03-20T00:22:59;9.60;63.10
18454;DHT22;9356;52.202;20.950;2023-03-20T00:24:03;9.60;63.30
18454;DHT22;9356;52.202;20.950;2023-03-20T00:25:08;9.60;63.40
18454;DHT22;9356;52.202;20.950;2023-03-20T00:26:14;9.60;63.40
18454;DHT22;9356;52.202;20.950;2023-03-20T00:27:19;9.50;63.60
18454;DHT22;9356;52.202;20.950;2023-03-20T00:28:39;9.50;63.70
18454;DHT22;9356;52.202;20.950;2023-03-20T00:29:44;9.50;63.90
18454;DHT22;9356;52.202;20.950;2023-03-20T00:30:47;9.40;64.60
18454;DHT22;9356;52.202;20.950;2023-03-20T00:31:52;9.40;64.20
18454;DHT22;9356;52.202;20.950;2023-03-20T00:32:57;9.40;64.20
18454;DHT22;9356;52.202;20.950;2023-03-20T00:34:03;9.40;64.30
18454;DHT22;9356;52.202;20.950;2023-03-20T00:35:17;9.30;64.50
18454;DHT22;9356;52.202;20.950;2023-03-20T00:36:22;9.30;64.90
18454;DHT22;9356;52.202;20.950;2023-03-20T00:37:25;9.30;65.00
18454;DHT22;9356;52.202;20.950;2023-03-20T00:38:31;9.20;65.00
18454;DHT22;9356;52.202;20.950;2023-03-20T00:39:35;9.30;65.40
18454;DHT22;9356;52.202;20.950;2023-03-20T00:40:39;9.20;65.40
18454;DHT22;9356;52.202;20.950;2023-03-20T00:41:49;9.30;65.50
18454;DHT22;9356;52.202;20.950;2023-03-20T00:42:58;9.20;65.60
18454;DHT22;9356;52.202;20.950;2023-03-20T00:44:17;7.30;64.60
18454;DHT22;9356;52.202;20.950;2023-03-20T00:45:22;9.20;65.60
18454;DHT22;9356;52.202;20.950;2023-03-20T00:46:26;9.20;66.00
18454;DHT22;9356;52.202;20.950;2023-03-20T00:47:36;7.00;64.60
18454;DHT22;9356;52.202;20.950;2023-03-20T00:48:43;9.20;66.40
18454;DHT22;9356;52.202;20.950;2023-03-20T00:49:49;9.10;66.00
18454;DHT22;9356;52.202;20.950;2023-03-20T00:50:52;9.10;66.20
18454;DHT22;9356;52.202;20.950;2023-03-20T00:51:57;9.10;66.20
18454;DHT22;9356;52.202;20.950;2023-03-20T00:52:59;9.10;66.10
18454;DHT22;9356;52.202;20.950;2023-03-20T00:54:05;9.10;66.40
18454;DHT22;9356;52.202;20.950;2023-03-20T00:55:08;9.10;66.50
18454;DHT22;9356;52.202;20.950;2023-03-20T00:56:31;9.10;66.50
18454;DHT22;9356;52.202;20.950;2023-03-20T00:57:39;9.00;66.50
18454;DHT22;9356;52.202;20.950;2023-03-20T00:58:43;8.30;66.20
18454;DHT22;9356;52.202;20.950;2023-03-20T00:59:53;9.10;67.00
18454;DHT22;9356;52.202;20.950;2023-03-20T01:00:58;9.10;67.10
18454;DHT22;9356;52.202;20.950;2023-03-20T01:02:04;9.00;66.90
18454;DHT22;9356;52.202;20.950;2023-03-20T01:03:13;9.10;66.90
18454;DHT22;9356;52.202;20.950;2023-03-20T01:04:19;9.00;66.90
18454;DHT22;9356;52.202;20.950;2023-03-20T01:05:23;9.00;66.90
18454;DHT22;9356;52.202;20.950;2023-03-20T01:06:28;8.90;67.00
18454;DHT22;9356;52.202;20.950;2023-03-20T01:07:32;9.00;67.10
18454;DHT22;9356;52.202;20.950;2023-03-20T01:08:37;8.90;67.00
18454;DHT22;9356;52.202;20.950;2023-03-20T01:09:40;8.90;67.20
18454;DHT22;9356;52.202;20.950;2023-03-20T01:10:46;9.00;67.40
18454;DHT22;9356;52.202;20.950;2023-03-20T01:11:49;8.90;67.40
18454;DHT22;9356;52.202;20.950;2023-03-20T01:12:58;8.90;67.70
18454;DHT22;9356;52.202;20.950;2023-03-20T01:14:02;8.90;67.70
18454;DHT22;9356;52.202;20.950;2023-03-20T01:15:18;8.80;67.80
18454;DHT22;9356;52.202;20.950;2023-03-20T01:16:23;8.80;67.90
18454;DHT22;9356;52.202;20.950;2023-03-20T01:17:28;8.80;67.90
18454;DHT22;9356;52.202;20.950;2023-03-20T01:18:31;8.80;67.90
18454;DHT22;9356;52.202;20.950;2023-03-20T01:19:35;8.80;68.00
18454;DHT22;9356;52.202;20.950;2023-03-20T01:20:39;8.80;68.10
18454;DHT22;9356;52.202;20.950;2023-03-20T01:21:42;8.70;68.30
18454;DHT22;9356;52.202;20.950;2023-03-20T01:22:45;8.70;68.50
18454;DHT22;9356;52.202;20.950;2023-03-20T01:23:49;8.70;68.60
18454;DHT22;9356;52.202;20.950;2023-03-20T01:24:51;8.70;68.80
18454;DHT22;9356;52.202;20.950;2023-03-20T01:25:55;8.70;68.70
18454;DHT22;9356;52.202;20.950;2023-03-20T01:26:59;8.70;68.80
18454;DHT22;9356;52.202;20.950;2023-03-20T01:28:14;9.00;69.00
18454;DHT22;9356;52.202;20.950;2023-03-20T01:29:20;8.70;68.90
18454;DHT22;9356;52.202;20.950;2023-03-20T01:30:27;8.70;69.00
18454;DHT22;9356;52.202;20.950;2023-03-20T01:31:31;8.70;68.90
18454;DHT22;9356;52.202;20.950;2023-03-20T01:32:35;8.70;69.00
18454;DHT22;9356;52.202;20.950;2023-03-20T01:33:38;8.70;69.10
18454;DHT22;9356;52.202;20.950;2023-03-20T01:34:42;8.70;69.10
18454;DHT22;9356;52.202;20.950;2023-03-20T01:35:46;8.70;69.10
18454;DHT22;9356;52.202;20.950;2023-03-20T01:36:53;8.70;69.10
18454;DHT22;9356;52.202;20.950;2023-03-20T01:37:57;8.70;69.10
18454;DHT22;9356;52.202;20.950;2023-03-20T01:39:01;8.70;69.20
18454;DHT22;9356;52.202;20.950;2023-03-20T01:40:14;8.70;69.10
18454;DHT22;9356;52.202;20.950;2023-03-20T01:41:22;8.70;69.20
18454;DHT22;9356;52.202;20.950;2023-03-20T01:42:26;5.90;67.70
18454;DHT22;9356;52.202;20.950;2023-03-20T01:43:32;8.70;69.20
18454;DHT22;9356;52.202;20.950;2023-03-20T01:44:35;8.80;69.20
18454;DHT22;9356;52.202;20.950;2023-03-20T01:45:58;8.70;69.60
18454;DHT22;9356;52.202;20.950;2023-03-20T01:47:15;8.70;69.60
18454;DHT22;9356;52.202;20.950;2023-03-20T01:48:24;8.60;69.60
18454;DHT22;9356;52.202;20.950;2023-03-20T01:51:10;8.60;69.70
18454;DHT22;9356;52.202;20.950;2023-03-20T01:52:13;8.60;69.70
18454;DHT22;9356;52.202;20.950;2023-03-20T01:53:20;8.60;69.90
18454;DHT22;9356;52.202;20.950;2023-03-20T01:54:35;8.60;70.20
18454;DHT22;9356;52.202;20.950;2023-03-20T01:55:46;10.80;71.60
18454;DHT22;9356;52.202;20.950;2023-03-20T01:56:59;8.50;70.10
18454;DHT22;9356;52.202;20.950;2023-03-20T01:58:11;8.50;70.20
18454;DHT22;9356;52.202;20.950;2023-03-20T01:59:20;8.50;70.40
18454;DHT22;9356;52.202;20.950;2023-03-20T02:00:25;8.50;70.50
18454;DHT22;9356;52.202;20.950;2023-03-20T02:01:30;8.50;70.70
18454;DHT22;9356;52.202;20.950;2023-03-20T02:02:39;8.50;70.90
18454;DHT22;9356;52.202;20.950;2023-03-20T02:03:47;8.40;71.00
18454;DHT22;9356;52.202;20.950;2023-03-20T02:04:58;8.40;71.20
18454;DHT22;9356;52.202;20.950;2023-03-20T02:06:03;5.60;69.40
18454;DHT22;9356;52.202;20.950;2023-03-20T02:07:36;8.40;71.30
18454;DHT22;9356;52.202;20.950;2023-03-20T02:08:46;8.40;71.30
18454;DHT22;9356;52.202;20.950;2023-03-20T02:09:52;8.50;71.30
18454;DHT22;9356;52.202;20.950;2023-03-20T02:11:04;8.40;71.10
18454;DHT22;9356;52.202;20.950;2023-03-20T02:12:09;8.40;71.40
18454;DHT22;9356;52.202;20.950;2023-03-20T02:13:14;8.40;71.40
18454;DHT22;9356;52.202;20.950;2023-03-20T02:14:21;8.40;71.40
18454;DHT22;9356;52.202;20.950;2023-03-20T02:15:31;8.40;71.50
18454;DHT22;9356;52.202;20.950;2023-03-20T02:16:50;8.40;71.70
18454;DHT22;9356;52.202;20.950;2023-03-20T02:18:14;8.40;72.20
18454;DHT22;9356;52.202;20.950;2023-03-20T02:19:25;8.40;71.80
18454;DHT22;9356;52.202;20.950;2023-03-20T02:20:49;8.30;71.50
18454;DHT22;9356;52.202;20.950;2023-03-20T02:26:10;8.30;71.90
18454;DHT22;9356;52.202;20.950;2023-03-20T02:27:26;8.30;71.90
18454;DHT22;9356;52.202;20.950;2023-03-20T02:29:08;8.30;72.20
18454;DHT22;9356;52.202;20.950;2023-03-20T02:34:35;8.30;72.60
18454;DHT22;9356;52.202;20.950;2023-03-20T02:37:54;8.80;73.10
18454;DHT22;9356;52.202;20.950;2023-03-20T02:40:53;8.30;73.10
18454;DHT22;9356;52.202;20.950;2023-03-20T02:42:10;8.20;73.20
18454;DHT22;9356;52.202;20.950;2023-03-20T02:43:23;8.20;73.30
18454;DHT22;9356;52.202;20.950;2023-03-20T02:44:35;8.20;73.50
18454;DHT22;9356;52.202;20.950;2023-03-20T02:45:48;8.10;73.60
18454;DHT22;9356;52.202;20.950;2023-03-20T02:47:02;8.10;73.70
18454;DHT22;9356;52.202;20.950;2023-03-20T02:48:14;8.10;73.90
18454;DHT22;9356;52.202;20.950;2023-03-20T02:49:37;8.10;73.90
18454;DHT22;9356;52.202;20.950;2023-03-20T02:50:50;8.10;74.10
18454;DHT22;9356;52.202;20.950;2023-03-20T02:52:03;8.00;73.90
18454;DHT22;9356;52.202;20.950;2023-03-20T02:53:21;8.10;74.00
18454;DHT22;9356;52.202;20.950;2023-03-20T02:54:36;8.10;74.00
18454;DHT22;9356;52.202;20.950;2023-03-20T02:55:47;8.10;74.10
18454;DHT22;9356;52.202;20.950;2023-03-20T02:57:01;8.00;74.20
18454;DHT22;9356;52.202;20.950;2023-03-20T02:58:12;8.10;74.40
18454;DHT22;9356;52.202;20.950;2023-03-20T02:59:25;8.10;74.50
18454;DHT22;9356;52.202;20.950;2023-03-20T03:00:34;7.50;74.10
18454;DHT22;9356;52.202;20.950;2023-03-20T03:01:49;9.80;75.50
18454;DHT22;9356;52.202;20.950;2023-03-20T03:03:03;8.00;74.40
18454;DHT22;9356;52.202;20.950;2023-03-20T03:04:12;8.00;74.30
18454;DHT22;9356;52.202;20.950;2023-03-20T03:05:22;8.00;74.40
18454;DHT22;9356;52.202;20.950;2023-03-20T03:06:30;8.00;74.40
18454;DHT22;9356;52.202;20.950;2023-03-20T03:07:36;8.00;74.40
18454;DHT22;9356;52.202;20.950;2023-03-20T03:08:48;8.00;74.40
18454;DHT22;9356;52.202;20.950;2023-03-20T03:09:57;8.00;74.60
18454;DHT22;9356;52.202;20.950;2023-03-20T03:11:05;8.00;74.60
18454;DHT22;9356;52.202;20.950;2023-03-20T03:12:14;8.00;74.80
18454;DHT22;9356;52.202;20.950;2023-03-20T03:13:25;8.00;74.90
18454;DHT22;9356;52.202;20.950;2023-03-20T03:14:36;8.00;75.10
18454;DHT22;9356;52.202;20.950;2023-03-20T03:15:48;8.00;75.40
18454;DHT22;9356;52.202;20.950;2023-03-20T03:16:57;7.90;75.80
18454;DHT22;9356;52.202;20.950;2023-03-20T03:18:05;8.00;75.70
18454;DHT22;9356;52.202;20.950;2023-03-20T03:19:14;7.90;75.40
18454;DHT22;9356;52.202;20.950;2023-03-20T03:20:24;8.00;75.70
18454;DHT22;9356;52.202;20.950;2023-03-20T03:21:30;7.90;75.70
18454;DHT22;9356;52.202;20.950;2023-03-20T03:22:35;7.90;75.60
18454;DHT22;9356;52.202;20.950;2023-03-20T03:23:44;7.90;75.80
18454;DHT22;9356;52.202;20.950;2023-03-20T03:24:50;5.90;75.20
18454;DHT22;9356;52.202;20.950;2023-03-20T03:25:56;7.90;76.00
18454;DHT22;9356;52.202;20.950;2023-03-20T03:27:09;7.10;75.60
18454;DHT22;9356;52.202;20.950;2023-03-20T03:28:25;7.20;75.70
18454;DHT22;9356;52.202;20.950;2023-03-20T03:29:35;7.90;76.30
18454;DHT22;9356;52.202;20.950;2023-03-20T03:30:39;7.80;76.10
18454;DHT22;9356;52.202;20.950;2023-03-20T03:31:44;7.80;76.20
18454;DHT22;9356;52.202;20.950;2023-03-20T03:33:11;7.90;76.20
18454;DHT22;9356;52.202;20.950;2023-03-20T03:34:20;7.80;76.30
18454;DHT22;9356;52.202;20.950;2023-03-20T03:35:25;7.80;76.70
18454;DHT22;9356;52.202;20.950;2023-03-20T03:36:37;7.80;76.80
18454;DHT22;9356;52.202;20.950;2023-03-20T03:37:54;7.80;76.50
18454;DHT22;9356;52.202;20.950;2023-03-20T03:39:11;7.80;76.70
18454;DHT22;9356;52.202;20.950;2023-03-20T03:40:25;7.80;76.80
18454;DHT22;9356;52.202;20.950;2023-03-20T03:41:33;7.80;77.00
18454;DHT22;9356;52.202;20.950;2023-03-20T03:42:46;7.80;77.20
18454;DHT22;9356;52.202;20.950;2023-03-20T03:44:01;7.80;77.20
18454;DHT22;9356;52.202;20.950;2023-03-20T03:45:12;7.80;77.30
18454;DHT22;9356;52.202;20.950;2023-03-20T03:46:25;7.80;77.40
18454;DHT22;9356;52.202;20.950;2023-03-20T03:47:36;7.80;77.70
18454;DHT22;9356;52.202;20.950;2023-03-20T03:48:46;7.70;77.80
18454;DHT22;9356;52.202;20.950;2023-03-20T03:49:59;7.70;77.80
18454;DHT22;9356;52.202;20.950;2023-03-20T03:51:10;7.70;77.90
18454;DHT22;9356;52.202;20.950;2023-03-20T03:52:30;7.70;78.10
18454;DHT22;9356;52.202;20.950;2023-03-20T03:53:43;7.70;78.10
18454;DHT22;9356;52.202;20.950;2023-03-20T03:54:54;7.70;78.30
18454;DHT22;9356;52.202;20.950;2023-03-20T03:56:05;7.70;78.50
18454;DHT22;9356;52.202;20.950;2023-03-20T03:57:15;5.90;77.50
18454;DHT22;9356;52.202;20.950;2023-03-20T03:58:26;7.60;78.80
18454;DHT22;9356;52.202;20.950;2023-03-20T03:59:36;7.60;79.10
18454;DHT22;9356;52.202;20.950;2023-03-20T04:00:42;7.60;79.20
18454;DHT22;9356;52.202;20.950;2023-03-20T04:01:49;7.60;79.40
18454;DHT22;9356;52.202;20.950;2023-03-20T04:02:55;7.60;79.60
18454;DHT22;9356;52.202;20.950;2023-03-20T04:04:03;7.60;79.70
18454;DHT22;9356;52.202;20.950;2023-03-20T04:05:09;8.30;80.10
18454;DHT22;9356;52.202;20.950;2023-03-20T04:06:16;7.60;79.80
18454;DHT22;9356;52.202;20.950;2023-03-20T04:07:19;7.60;80.20
18454;DHT22;9356;52.202;20.950;2023-03-20T04:08:23;7.50;80.20
18454;DHT22;9356;52.202;20.950;2023-03-20T04:09:26;7.60;80.40
18454;DHT22;9356;52.202;20.950;2023-03-20T04:10:31;7.60;80.80
18454;DHT22;9356;52.202;20.950;2023-03-20T04:11:34;5.10;79.30
18454;DHT22;9356;52.202;20.950;2023-03-20T04:12:40;7.60;80.90
18454;DHT22;9356;52.202;20.950;2023-03-20T04:13:48;7.50;81.00
18454;DHT22;9356;52.202;20.950;2023-03-20T04:14:52;7.50;81.00
18454;DHT22;9356;52.202;20.950;2023-03-20T04:15:57;7.50;81.30
18454;DHT22;9356;52.202;20.950;2023-03-20T04:17:03;7.50;81.30
18454;DHT22;9356;52.202;20.950;2023-03-20T04:18:07;7.50;81.40
18454;DHT22;9356;52.202;20.950;2023-03-20T04:19:13;7.50;81.50
18454;DHT22;9356;52.202;20.950;2023-03-20T04:20:19;7.60;81.50
18454;DHT22;9356;52.202;20.950;2023-03-20T04:21:23;7.60;81.50
18454;DHT22;9356;52.202;20.950;2023-03-20T04:22:26;7.60;81.40
18454;DHT22;9356;52.202;20.950;2023-03-20T04:23:34;7.60;81.80
18454;DHT22;9356;52.202;20.950;2023-03-20T04:24:37;7.50;81.80
18454;DHT22;9356;52.202;20.950;2023-03-20T04:25:43;7.50;81.90
18454;DHT22;9356;52.202;20.950;2023-03-20T04:26:45;7.50;82.00
18454;DHT22;9356;52.202;20.950;2023-03-20T04:27:50;7.50;82.30
18454;DHT22;9356;52.202;20.950;2023-03-20T04:29:14;7.40;82.50
18454;DHT22;9356;52.202;20.950;2023-03-20T04:30:40;7.40;82.90
18454;DHT22;9356;52.202;20.950;2023-03-20T04:31:51;7.40;83.10
18454;DHT22;9356;52.202;20.950;2023-03-20T04:33:13;7.40;83.50
18454;DHT22;9356;52.202;20.950;2023-03-20T04:34:49;7.40;83.70
18454;DHT22;9356;52.202;20.950;2023-03-20T04:36:19;7.30;83.80
18454;DHT22;9356;52.202;20.950;2023-03-20T04:37:29;7.30;84.20
18454;DHT22;9356;52.202;20.950;2023-03-20T04:38:42;7.20;84.40
18454;DHT22;9356;52.202;20.950;2023-03-20T04:39:46;7.30;84.80
18454;DHT22;9356;52.202;20.950;2023-03-20T04:40:50;7.30;85.00
18454;DHT22;9356;52.202;20.950;2023-03-20T04:41:54;7.30;85.40
18454;DHT22;9356;52.202;20.950;2023-03-20T04:42:57;7.30;85.70
18454;DHT22;9356;52.202;20.950;2023-03-20T04:44:02;7.20;85.70
18454;DHT22;9356;52.202;20.950;2023-03-20T04:45:08;9.10;87.10
18454;DHT22;9356;52.202;20.950;2023-03-20T04:46:13;7.20;86.20
18454;DHT22;9356;52.202;20.950;2023-03-20T04:47:17;7.20;86.60
18454;DHT22;9356;52.202;20.950;2023-03-20T04:48:20;7.20;86.50
18454;DHT22;9356;52.202;20.950;2023-03-20T04:49:24;7.20;86.50
18454;DHT22;9356;52.202;20.950;2023-03-20T04:50:26;7.20;86.70
18454;DHT22;9356;52.202;20.950;2023-03-20T04:51:30;7.10;87.00
18454;DHT22;9356;52.202;20.950;2023-03-20T04:52:33;7.10;87.40
18454;DHT22;9356;52.202;20.950;2023-03-20T04:53:37;7.10;87.70
18454;DHT22;9356;52.202;20.950;2023-03-20T04:54:39;5.90;87.20
18454;DHT22;9356;52.202;20.950;2023-03-20T04:55:43;7.10;88.10
18454;DHT22;9356;52.202;20.950;2023-03-20T04:56:48;7.10;88.30
18454;DHT22;9356;52.202;20.950;2023-03-20T04:57:54;7.20;88.50
18454;DHT22;9356;52.202;20.950;2023-03-20T04:58:59;7.20;88.60
18454;DHT22;9356;52.202;20.950;2023-03-20T05:00:04;7.20;88.50
18454;DHT22;9356;52.202;20.950;2023-03-20T05:01:07;7.20;88.50
18454;DHT22;9356;52.202;20.950;2023-03-20T05:02:11;8.60;89.30
18454;DHT22;9356;52.202;20.950;2023-03-20T05:03:16;7.30;88.20
18454;DHT22;9356;52.202;20.950;2023-03-20T05:04:23;7.30;88.20
18454;DHT22;9356;52.202;20.950;2023-03-20T05:05:27;7.40;88.10
18454;DHT22;9356;52.202;20.950;2023-03-20T05:06:31;7.40;88.00
18454;DHT22;9356;52.202;20.950;2023-03-20T05:07:35;7.40;88.20
18454;DHT22;9356;52.202;20.950;2023-03-20T05:08:43;7.40;88.30
18454;DHT22;9356;52.202;20.950;2023-03-20T05:09:47;6.70;87.80
18454;DHT22;9356;52.202;20.950;2023-03-20T05:10:51;7.50;88.40
18454;DHT22;9356;52.202;20.950;2023-03-20T05:12:28;7.50;88.50
18454;DHT22;9356;52.202;20.950;2023-03-20T05:13:57;8.90;89.50
18454;DHT22;9356;52.202;20.950;2023-03-20T05:15:18;7.50;88.50
18454;DHT22;9356;52.202;20.950;2023-03-20T05:16:52;7.50;88.60
18454;DHT22;9356;52.202;20.950;2023-03-20T05:18:16;7.50;88.90
18454;DHT22;9356;52.202;20.950;2023-03-20T05:19:38;7.50;89.60
18454;DHT22;9356;52.202;20.950;2023-03-20T05:20:42;7.60;91.00
18454;DHT22;9356;52.202;20.950;2023-03-20T05:21:57;7.80;92.90
18454;DHT22;9356;52.202;20.950;2023-03-20T05:23:31;7.90;94.40
18454;DHT22;9356;52.202;20.950;2023-03-20T05:24:53;8.00;93.20
18454;DHT22;9356;52.202;20.950;2023-03-20T05:26:03;8.00;91.10
18454;DHT22;9356;52.202;20.950;2023-03-20T05:27:25;5.60;89.40
18454;DHT22;9356;52.202;20.950;2023-03-20T05:28:57;8.10;89.70
18454;DHT22;9356;52.202;20.950;2023-03-20T05:30:28;8.20;89.00
18454;DHT22;9356;52.202;20.950;2023-03-20T05:31:39;8.30;88.10
18454;DHT22;9356;52.202;20.950;2023-03-20T05:33:12;8.50;87.50
18454;DHT22;9356;52.202;20.950;2023-03-20T05:34:45;8.80;85.50
18454;DHT22;9356;52.202;20.950;2023-03-20T05:35:57;9.00;84.10
18454;DHT22;9356;52.202;20.950;2023-03-20T05:37:21;9.20;88.50
18454;DHT22;9356;52.202;20.950;2023-03-20T05:38:45;10.60;83.30
18454;DHT22;9356;52.202;20.950;2023-03-20T05:39:55;9.50;80.40
18454;DHT22;9356;52.202;20.950;2023-03-20T05:41:01;9.70;79.30
18454;DHT22;9356;52.202;20.950;2023-03-20T05:42:18;9.80;78.30
18454;DHT22;9356;52.202;20.950;2023-03-20T05:43:24;9.80;77.50
18454;DHT22;9356;52.202;20.950;2023-03-20T05:44:37;9.90;77.00
18454;DHT22;9356;52.202;20.950;2023-03-20T05:45:51;9.90;76.90
18454;DHT22;9356;52.202;20.950;2023-03-20T05:47:22;10.00;76.50
18454;DHT22;9356;52.202;20.950;2023-03-20T05:48:46;10.10;76.20
18454;DHT22;9356;52.202;20.950;2023-03-20T05:50:10;10.10;75.60
18454;DHT22;9356;52.202;20.950;2023-03-20T05:51:40;10.20;74.80
18454;DHT22;9356;52.202;20.950;2023-03-20T05:52:52;10.30;75.00
18454;DHT22;9356;52.202;20.950;2023-03-20T05:54:04;10.40;74.60
18454;DHT22;9356;52.202;20.950;2023-03-20T05:55:26;10.60;74.10
18454;DHT22;9356;52.202;20.950;2023-03-20T05:56:37;10.70;73.20
18454;DHT22;9356;52.202;20.950;2023-03-20T05:57:50;10.90;72.40
18454;DHT22;9356;52.202;20.950;2023-03-20T05:59:14;11.00;71.50
18454;DHT22;9356;52.202;20.950;2023-03-20T06:00:45;11.10;71.00
18454;DHT22;9356;52.202;20.950;2023-03-20T06:02:12;12.20;70.30
18454;DHT22;9356;52.202;20.950;2023-03-20T06:03:27;11.50;68.60
18454;DHT22;9356;52.202;20.950;2023-03-20T06:04:43;11.50;68.40
18454;DHT22;9356;52.202;20.950;2023-03-20T06:05:57;11.60;68.20
18454;DHT22;9356;52.202;20.950;2023-03-20T06:07:01;11.70;68.00
18454;DHT22;9356;52.202;20.950;2023-03-20T06:08:04;11.80;67.40
18454;DHT22;9356;52.202;20.950;2023-03-20T06:09:08;11.80;67.20
18454;DHT22;9356;52.202;20.950;2023-03-20T06:10:12;11.80;68.10
18454;DHT22;9356;52.202;20.950;2023-03-20T06:11:16;11.20;67.60
18454;DHT22;9356;52.202;20.950;2023-03-20T06:12:20;11.90;67.30
18454;DHT22;9356;52.202;20.950;2023-03-20T06:13:23;12.00;66.60
18454;DHT22;9356;52.202;20.950;2023-03-20T06:14:27;12.00;65.80
18454;DHT22;9356;52.202;20.950;2023-03-20T06:15:34;11.20;64.80
18454;DHT22;9356;52.202;20.950;2023-03-20T06:16:48;12.00;64.90
18454;DHT22;9356;52.202;20.950;2023-03-20T06:17:51;12.00;64.70
18454;DHT22;9356;52.202;20.950;2023-03-20T06:18:55;12.10;64.70
18454;DHT22;9356;52.202;20.950;2023-03-20T06:20:00;12.10;64.40
18454;DHT22;9356;52.202;20.950;2023-03-20T06:21:05;12.10;64.20
18454;DHT22;9356;52.202;20.950;2023-03-20T06:22:09;12.10;64.10
18454;DHT22;9356;52.202;20.950;2023-03-20T06:23:11;10.00;62.80
18454;DHT22;9356;52.202;20.950;2023-03-20T06:24:15;11.40;64.00
18454;DHT22;9356;52.202;20.950;2023-03-20T06:25:19;12.30;64.60
18454;DHT22;9356;52.202;20.950;2023-03-20T06:26:23;12.40;64.40
18454;DHT22;9356;52.202;20.950;2023-03-20T06:27:33;12.40;64.00
18454;DHT22;9356;52.202;20.950;2023-03-20T06:28:37;12.50;63.90
18454;DHT22;9356;52.202;20.950;2023-03-20T06:29:42;12.60;63.50
18454;DHT22;9356;52.202;20.950;2023-03-20T06:30:50;12.70;63.30
18454;DHT22;9356;52.202;20.950;2023-03-20T06:31:58;15.70;64.50
18454;DHT22;9356;52.202;20.950;2023-03-20T06:33:05;13.00;62.70
18454;DHT22;9356;52.202;20.950;2023-03-20T06:34:17;13.10;66.50
18454;DHT22;9356;52.202;20.950;2023-03-20T06:35:22;13.20;67.80
18454;DHT22;9356;52.202;20.950;2023-03-20T06:36:25;13.40;64.00
18454;DHT22;9356;52.202;20.950;2023-03-20T06:37:39;13.60;62.00
18454;DHT22;9356;52.202;20.950;2023-03-20T06:38:54;13.80;60.40
18454;DHT22;9356;52.202;20.950;2023-03-20T06:39:59;13.90;59.80
18454;DHT22;9356;52.202;20.950;2023-03-20T06:41:04;14.10;63.70
18454;DHT22;9356;52.202;20.950;2023-03-20T06:42:07;16.60;61.00
18454;DHT22;9356;52.202;20.950;2023-03-20T06:43:11;14.40;59.00
18454;DHT22;9356;52.202;20.950;2023-03-20T06:44:21;14.50;58.10
18454;DHT22;9356;52.202;20.950;2023-03-20T06:45:51;14.60;57.60
18454;DHT22;9356;52.202;20.950;2023-03-20T06:47:02;14.70;57.70
18454;DHT22;9356;52.202;20.950;2023-03-20T06:48:06;14.70;57.40
18454;DHT22;9356;52.202;20.950;2023-03-20T06:49:10;15.00;57.30
18454;DHT22;9356;52.202;20.950;2023-03-20T06:50:14;15.10;56.80
18454;DHT22;9356;52.202;20.950;2023-03-20T06:51:17;15.30;57.00
18454;DHT22;9356;52.202;20.950;2023-03-20T06:52:26;15.40;59.00
18454;DHT22;9356;52.202;20.950;2023-03-20T06:53:51;18.20;65.40
18454;DHT22;9356;52.202;20.950;2023-03-20T06:55:00;15.90;58.80
18454;DHT22;9356;52.202;20.950;2023-03-20T06:56:03;16.20;58.90
18454;DHT22;9356;52.202;20.950;2023-03-20T06:57:07;16.30;63.00
18454;DHT22;9356;52.202;20.950;2023-03-20T06:58:11;16.40;59.10
18454;DHT22;9356;52.202;20.950;2023-03-20T06:59:14;16.60;56.20
18454;DHT22;9356;52.202;20.950;2023-03-20T07:00:19;16.70;55.70
18454;DHT22;9356;52.202;20.950;2023-03-20T07:01:24;16.90;54.80
18454;DHT22;9356;52.202;20.950;2023-03-20T07:02:30;16.90;54.80
18454;DHT22;9356;52.202;20.950;2023-03-20T07:03:33;17.00;53.90
18454;DHT22;9356;52.202;20.950;2023-03-20T07:04:37;17.10;53.60
18454;DHT22;9356;52.202;20.950;2023-03-20T07:05:42;17.20;53.60
18454;DHT22;9356;52.202;20.950;2023-03-20T07:06:47;17.30;63.90
18454;DHT22;9356;52.202;20.950;2023-03-20T07:07:51;17.60;79.00
18454;DHT22;9356;52.202;20.950;2023-03-20T07:08:55;16.10;78.70
18454;DHT22;9356;52.202;20.950;2023-03-20T07:09:59;18.20;64.60
18454;DHT22;9356;52.202;20.950;2023-03-20T07:11:05;18.40;68.60
18454;DHT22;9356;52.202;20.950;2023-03-20T07:12:11;18.70;60.80
18454;DHT22;9356;52.202;20.950;2023-03-20T07:13:17;18.90;61.40
18454;DHT22;9356;52.202;20.950;2023-03-20T07:14:21;19.20;56.90
18454;DHT22;9356;52.202;20.950;2023-03-20T07:15:32;19.40;57.20
18454;DHT22;9356;52.202;20.950;2023-03-20T07:16:37;19.70;56.20
18454;DHT22;9356;52.202;20.950;2023-03-20T07:17:41;19.90;56.90
18454;DHT22;9356;52.202;20.950;2023-03-20T07:18:45;20.10;55.20
18454;DHT22;9356;52.202;20.950;2023-03-20T07:19:53;20.30;53.80
18454;DHT22;9356;52.202;20.950;2023-03-20T07:20:59;20.60;52.20
18454;DHT22;9356;52.202;20.950;2023-03-20T07:22:05;20.80;49.50
18454;DHT22;9356;52.202;20.950;2023-03-20T07:23:14;21.00;49.00
18454;DHT22;9356;52.202;20.950;2023-03-20T07:24:18;21.40;50.00
18454;DHT22;9356;52.202;20.950;2023-03-20T07:25:21;21.30;48.80
18454;DHT22;9356;52.202;20.950;2023-03-20T07:26:42;21.40;47.60
18454;DHT22;9356;52.202;20.950;2023-03-20T07:27:47;21.50;46.50
18454;DHT22;9356;52.202;20.950;2023-03-20T07:28:55;21.60;47.60
18454;DHT22;9356;52.202;20.950;2023-03-20T07:29:59;22.60;46.60
18454;DHT22;9356;52.202;20.950;2023-03-20T07:31:03;21.60;46.50
18454;DHT22;9356;52.202;20.950;2023-03-20T07:32:07;21.60;46.80
18454;DHT22;9356;52.202;20.950;2023-03-20T07:33:16;21.70;47.00
18454;DHT22;9356;52.202;20.950;2023-03-20T07:34:21;21.70;47.20
18454;DHT22;9356;52.202;20.950;2023-03-20T07:35:25;21.70;47.40
18454;DHT22;9356;52.202;20.950;2023-03-20T07:36:28;21.70;47.80